Time;durP1;ratioP1;P1;durP2;ratioP2;P2;SDS_P1;SDS_P2;PMS_P1;PMS_P2;Temp;Humidity;BMP_temperature;BMP_pressure;BME280_temperature;BME280_humidity;BME280_pressure;Samples;Min_cycle;Max_cycle;Signal;HPM_P1;HPM_P2
2023/07/07 04:02:24;;;;;;;1.50;1.40;;;12.70;97.30;;;;;;5135799;23;21075;-87
2023/07/07 04:04:50;;;;;;;2.47;1.57;;;12.70;97.30;;;;;;4970644;28;20430;-88
2023/07/07 04:07:23;;;;;;;2.40;2.03;;;12.70;97.30;;;;;;4983137;28;20183;-89
2023/07/07 04:09:48;;;;;;;5.33;3.00;;;12.70;97.30;;;;;;4968995;28;20174;-87
2023/07/07 04:12:14;;;;;;;2.20;1.70;;;12.70;97.30;;;;;;4971139;23;20857;-65
2023/07/07 04:14:39;;;;;;;2.40;2.20;;;12.80;97.30;;;;;;4966257;28;20186;-65
2023/07/07 04:17:05;;;;;;;3.73;2.00;;;12.80;97.30;;;;;;4965006;28;20277;-65
2023/07/07 04:19:31;;;;;;;3.10;2.40;;;12.80;97.30;;;;;;4963730;28;20508;-65
2023/07/07 04:21:56;;;;;;;5.20;2.70;;;12.90;97.30;;;;;;4979351;28;20675;-66
2023/07/07 04:24:22;;;;;;;7.23;2.07;;;12.90;97.30;;;;;;4979115;28;20272;-67
2023/07/07 04:26:51;;;;;;;2.07;1.93;;;13.00;97.30;;;;;;4988293;28;20178;-66
2023/07/07 04:29:16;;;;;;;2.67;2.47;;;13.00;97.30;;;;;;4989719;28;20178;-65
2023/07/07 04:31:45;;;;;;;1.97;1.87;;;13.00;97.30;;;;;;4984613;28;20436;-66
2023/07/07 04:34:15;;;;;;;1.63;1.57;;;13.10;97.30;;;;;;4989689;28;20178;-66
2023/07/07 04:36:40;;;;;;;1.33;1.23;;;13.10;97.30;;;;;;4985685;28;20464;-66
2023/07/07 04:39:07;;;;;;;1.83;1.73;;;13.20;97.30;;;;;;4983043;28;20417;-66
2023/07/07 04:41:32;;;;;;;1.57;1.47;;;13.20;97.30;;;;;;4982076;28;20241;-66
2023/07/07 04:43:59;;;;;;;2.07;1.43;;;13.30;97.30;;;;;;4982102;28;20498;-66
2023/07/07 04:46:34;;;;;;;4.60;2.13;;;13.30;97.30;;;;;;4985182;28;20212;-66
2023/07/07 04:49:06;;;;;;;2.10;1.80;;;13.40;97.30;;;;;;4992319;23;20873;-68
2023/07/07 04:51:34;;;;;;;2.17;1.73;;;13.40;97.30;;;;;;4960967;28;20480;-68
2023/07/07 04:53:59;;;;;;;1.60;1.50;;;13.50;97.30;;;;;;4969282;28;20568;-69
2023/07/07 04:56:25;;;;;;;3.50;2.13;;;13.60;97.30;;;;;;4970595;28;20520;-69
2023/07/07 04:58:52;;;;;;;3.27;1.90;;;13.60;97.30;;;;;;4969491;28;20186;-69
2023/07/07 05:01:23;;;;;;;2.50;1.70;;;13.60;97.30;;;;;;4970419;28;20229;-69
2023/07/07 05:03:54;;;;;;;6.83;2.97;;;13.70;97.30;;;;;;4970335;28;20426;-69
2023/07/07 05:06:21;;;;;;;2.30;1.90;;;13.70;97.30;;;;;;4970908;28;20434;-69
2023/07/07 05:08:46;;;;;;;3.00;2.57;;;13.80;97.30;;;;;;4970502;28;20437;-70
2023/07/07 05:11:15;;;;;;;2.10;1.97;;;13.80;97.30;;;;;;4967410;28;20483;-70
2023/07/07 05:13:41;;;;;;;2.07;1.63;;;13.80;97.30;;;;;;4964660;28;20433;-70
2023/07/07 05:16:12;;;;;;;3.33;2.27;;;13.90;97.30;;;;;;4972032;28;20914;-68
2023/07/07 05:18:38;;;;;;;5.73;1.63;;;14.00;97.30;;;;;;4970640;28;20197;-69
2023/07/07 05:21:05;;;;;;;2.33;1.70;;;14.00;97.30;;;;;;4969209;28;20446;-67
2023/07/07 05:23:30;;;;;;;3.23;2.47;;;14.10;97.30;;;;;;4971218;28;20758;-67
2023/07/07 05:25:56;;;;;;;2.77;2.00;;;14.20;97.30;;;;;;4964702;28;20425;-67
2023/07/07 05:28:22;;;;;;;2.13;2.00;;;14.30;97.30;;;;;;4971514;28;20186;-67
2023/07/07 05:30:47;;;;;;;2.50;2.30;;;14.40;97.30;;;;;;4969202;28;20234;-67
2023/07/07 05:33:13;;;;;;;2.10;1.97;;;14.40;97.30;;;;;;4970021;28;20205;-67
2023/07/07 05:35:50;;;;;;;1.97;1.87;;;14.50;97.30;;;;;;4970917;28;20201;-67
2023/07/07 05:38:17;;;;;;;2.53;2.33;;;14.60;97.30;;;;;;4970008;28;20465;-67
2023/07/07 05:40:45;;;;;;;2.80;1.93;;;14.70;97.30;;;;;;4962170;28;20464;-67
2023/07/07 05:43:12;;;;;;;2.00;1.70;;;14.80;97.30;;;;;;4969160;28;20437;-67
2023/07/07 05:45:37;;;;;;;1.83;1.73;;;14.90;97.30;;;;;;4967618;28;20480;-67
2023/07/07 05:48:04;;;;;;;3.37;2.87;;;15.00;97.30;;;;;;4969305;28;20445;-67
2023/07/07 05:50:29;;;;;;;2.27;2.07;;;15.10;97.30;;;;;;4968109;28;20325;-67
2023/07/07 05:52:55;;;;;;;2.80;2.10;;;15.20;97.30;;;;;;4969587;28;20679;-67
2023/07/07 05:55:28;;;;;;;5.77;1.97;;;15.20;97.30;;;;;;4971486;28;20214;-67
2023/07/07 05:57:54;;;;;;;18.87;1.77;;;15.30;97.30;;;;;;4969688;28;20311;-67
2023/07/07 06:00:20;;;;;;;1.87;1.80;;;15.40;97.30;;;;;;4970753;28;20625;-67
2023/07/07 06:02:46;;;;;;;2.00;1.50;;;15.50;97.30;;;;;;4970069;28;20810;-67
2023/07/07 06:05:12;;;;;;;4.00;2.50;;;15.60;97.30;;;;;;4970496;28;20436;-67
2023/07/07 06:07:38;;;;;;;4.03;2.47;;;15.70;97.30;;;;;;4970645;28;20654;-67
2023/07/07 06:10:03;;;;;;;2.57;1.90;;;15.80;97.30;;;;;;4968140;28;20210;-68
2023/07/07 06:12:30;;;;;;;1.40;1.30;;;15.90;97.30;;;;;;4970163;28;20201;-68
2023/07/07 06:14:55;;;;;;;1.67;1.67;;;16.00;97.30;;;;;;4969628;28;20686;-68
2023/07/07 06:17:21;;;;;;;2.17;2.00;;;16.20;97.30;;;;;;4968921;28;20500;-68
2023/07/07 06:19:46;;;;;;;3.83;2.43;;;16.30;97.30;;;;;;4964320;28;20241;-67
2023/07/07 06:22:12;;;;;;;1.73;1.63;;;16.40;97.30;;;;;;4967115;28;20594;-68
2023/07/07 06:24:37;;;;;;;1.93;1.83;;;16.50;97.30;;;;;;4970589;28;20237;-68
2023/07/07 06:27:03;;;;;;;2.20;2.00;;;16.60;97.30;;;;;;4968491;28;20304;-68
2023/07/07 06:29:31;;;;;;;1.43;1.23;;;16.70;97.30;;;;;;4969355;28;20190;-67
2023/07/07 06:31:56;;;;;;;2.23;2.00;;;16.80;97.30;;;;;;4962651;28;20213;-68
2023/07/07 06:34:22;;;;;;;1.37;1.27;;;16.90;97.30;;;;;;4968556;28;20472;-67
2023/07/07 06:36:47;;;;;;;3.13;1.57;;;17.00;97.30;;;;;;4968814;28;20202;-68
2023/07/07 06:39:13;;;;;;;3.23;2.40;;;17.10;97.30;;;;;;4970395;28;20678;-68
2023/07/07 06:41:38;;;;;;;1.87;1.77;;;17.20;97.30;;;;;;4968039;28;20213;-68
2023/07/07 06:44:04;;;;;;;1.83;1.40;;;17.30;97.30;;;;;;4964614;28;20190;-68
2023/07/07 06:46:31;;;;;;;3.37;1.47;;;17.40;97.30;;;;;;4969294;28;20238;-68
2023/07/07 06:48:58;;;;;;;2.93;2.50;;;17.60;97.30;;;;;;4968148;28;20222;-68
2023/07/07 06:51:24;;;;;;;1.20;1.10;;;17.70;97.00;;;;;;4970632;28;20505;-68
2023/07/07 06:53:49;;;;;;;2.07;1.93;;;17.80;96.90;;;;;;4969406;28;20928;-68
2023/07/07 06:56:15;;;;;;;3.00;2.70;;;17.90;96.50;;;;;;4968744;28;20183;-68
2023/07/07 06:58:41;;;;;;;2.00;1.90;;;18.00;96.20;;;;;;4969016;28;20202;-68
2023/07/07 07:01:11;;;;;;;1.67;1.60;;;18.10;96.20;;;;;;4964065;28;20288;-68
2023/07/07 07:03:38;;;;;;;2.87;2.60;;;18.30;95.60;;;;;;4968252;28;20228;-68
2023/07/07 07:06:04;;;;;;;1.43;1.40;;;18.50;95.40;;;;;;4969200;28;20438;-68
2023/07/07 07:08:30;;;;;;;1.70;1.63;;;18.70;94.10;;;;;;4967389;28;20576;-68
2023/07/07 07:10:55;;;;;;;1.97;1.87;;;18.80;93.70;;;;;;4968181;28;20560;-68
2023/07/07 07:13:21;;;;;;;3.03;1.40;;;19.00;93.60;;;;;;4968915;28;20198;-68
2023/07/07 07:15:47;;;;;;;1.77;1.70;;;19.20;92.70;;;;;;4969865;28;20194;-68
2023/07/07 07:18:13;;;;;;;3.40;2.27;;;19.30;92.30;;;;;;4968154;28;20213;-68
2023/07/07 07:20:39;;;;;;;1.30;1.20;;;19.40;91.70;;;;;;4968755;28;20218;-68
2023/07/07 07:23:05;;;;;;;2.93;1.40;;;19.50;91.40;;;;;;4968640;28;20426;-68
2023/07/07 07:25:30;;;;;;;1.40;1.33;;;19.70;90.90;;;;;;4969395;28;20791;-68
2023/07/07 07:27:56;;;;;;;1.93;1.47;;;19.80;90.20;;;;;;4967528;28;20182;-68
2023/07/07 07:30:22;;;;;;;1.70;1.60;;;20.00;90.20;;;;;;4969810;28;20659;-67
2023/07/07 07:32:48;;;;;;;1.73;1.47;;;20.10;90.10;;;;;;4965001;28;20185;-68
2023/07/07 07:35:14;;;;;;;1.90;1.83;;;20.20;89.70;;;;;;4963329;28;20185;-67
2023/07/07 07:37:39;;;;;;;2.30;1.50;;;20.40;89.40;;;;;;4964605;28;20225;-68
2023/07/07 07:40:06;;;;;;;1.40;1.30;;;20.50;88.90;;;;;;4968763;28;20838;-68
2023/07/07 07:42:31;;;;;;;2.13;1.83;;;20.60;88.90;;;;;;4952066;28;20193;-68
2023/07/07 07:44:57;;;;;;;4.10;1.57;;;20.80;88.60;;;;;;4968669;28;20420;-67
2023/07/07 07:47:23;;;;;;;2.20;1.43;;;20.90;88.10;;;;;;4969018;28;20213;-68
2023/07/07 07:49:49;;;;;;;3.60;1.97;;;21.00;87.40;;;;;;4963929;28;20652;-68
2023/07/07 07:52:15;;;;;;;1.40;1.30;;;21.10;86.80;;;;;;4969175;28;20229;-68
2023/07/07 07:54:40;;;;;;;2.40;2.20;;;21.30;86.90;;;;;;4967374;28;20492;-67
2023/07/07 07:57:07;;;;;;;1.57;1.50;;;21.50;86.00;;;;;;4967249;28;20457;-68
2023/07/07 07:59:33;;;;;;;1.30;1.17;;;21.60;85.50;;;;;;4969927;28;20174;-67
2023/07/07 08:01:58;;;;;;;1.30;1.20;;;21.70;84.60;;;;;;4971178;28;20445;-68
2023/07/07 08:04:24;;;;;;;3.00;1.47;;;21.90;84.00;;;;;;4973226;28;20214;-68
2023/07/07 08:06:54;;;;;;;1.57;1.50;;;22.00;83.50;;;;;;4966347;28;20187;-68
2023/07/07 08:09:20;;;;;;;1.70;1.60;;;22.00;83.60;;;;;;4971496;28;20183;-68
2023/07/07 08:11:48;;;;;;;1.73;1.30;;;22.10;83.50;;;;;;4971465;28;20449;-68
2023/07/07 08:14:17;;;;;;;1.83;1.70;;;22.20;83.70;;;;;;4970731;28;20430;-68
2023/07/07 08:16:43;;;;;;;1.80;1.30;;;22.40;82.90;;;;;;4972709;28;20797;-68
2023/07/07 08:19:08;;;;;;;1.97;1.47;;;22.50;82.50;;;;;;4972615;28;20894;-68
2023/07/07 08:21:35;;;;;;;1.50;1.30;;;22.60;82.40;;;;;;4971838;28;21009;-68
2023/07/07 08:24:01;;;;;;;1.73;1.37;;;22.70;81.70;;;;;;4969887;28;20627;-69
2023/07/07 08:26:26;;;;;;;1.10;1.00;;;22.80;81.30;;;;;;4967715;28;20437;-68
2023/07/07 08:28:52;;;;;;;1.73;1.43;;;22.80;81.20;;;;;;4968938;28;20693;-68
2023/07/07 08:31:18;;;;;;;2.20;1.63;;;22.90;80.70;;;;;;4970786;28;20739;-68
2023/07/07 08:33:47;;;;;;;1.20;1.17;;;23.00;80.60;;;;;;4968944;28;20827;-68
2023/07/07 08:36:13;;;;;;;3.57;1.40;;;23.10;80.00;;;;;;4968861;28;21065;-68
2023/07/07 08:38:38;;;;;;;1.77;1.67;;;23.20;79.60;;;;;;4970830;28;20488;-67
2023/07/07 08:41:04;;;;;;;1.40;1.23;;;23.40;80.30;;;;;;4968058;28;20953;-68
2023/07/07 08:43:31;;;;;;;12.50;2.13;;;23.50;79.10;;;;;;4971559;28;20190;-67
2023/07/07 08:46:08;;;;;;;1.53;1.30;;;23.60;79.90;;;;;;4970870;28;20871;-68
2023/07/07 08:48:56;;;;;;;1.87;1.73;;;23.70;79.10;;;;;;4969930;28;20800;-68
2023/07/07 08:51:32;;;;;;;1.47;1.40;;;23.80;78.90;;;;;;4971640;28;20456;-67
2023/07/07 08:54:28;;;;;;;2.40;1.60;;;23.90;78.40;;;;;;4967200;28;20444;-68
2023/07/07 08:57:12;;;;;;;1.13;1.10;;;24.00;78.00;;;;;;4971549;28;20465;-68
2023/07/07 08:59:57;;;;;;;1.40;1.30;;;24.10;78.30;;;;;;4960557;28;20453;-68
2023/07/07 09:02:35;;;;;;;1.63;1.50;;;24.30;78.00;;;;;;4969842;28;21194;-68
2023/07/07 09:05:20;;;;;;;2.30;1.47;;;24.40;76.80;;;;;;4970562;28;20414;-67
2023/07/07 09:08:18;;;;;;;1.43;1.30;;;24.50;77.10;;;;;;4970617;28;20429;-68
2023/07/07 09:11:03;;;;;;;1.90;1.50;;;24.60;76.00;;;;;;4971455;28;20459;-68
2023/07/07 09:13:32;;;;;;;1.93;1.60;;;24.60;75.60;;;;;;4965416;28;20488;-68
2023/07/07 09:16:17;;;;;;;4.90;2.20;;;24.70;75.60;;;;;;4971342;28;20910;-68
2023/07/07 09:18:51;;;;;;;1.20;1.10;;;24.80;76.20;;;;;;4966327;28;20516;-67
2023/07/07 09:21:37;;;;;;;1.40;1.30;;;24.90;75.60;;;;;;4970945;28;20520;-68
2023/07/07 09:24:26;;;;;;;2.27;1.13;;;25.00;75.70;;;;;;4961099;28;20441;-67
2023/07/07 09:26:56;;;;;;;2.83;1.67;;;25.10;75.10;;;;;;4968187;28;20855;-67
2023/07/07 09:29:27;;;;;;;2.40;1.20;;;25.20;75.30;;;;;;4970728;28;20430;-67
2023/07/07 09:31:54;;;;;;;1.63;1.40;;;25.30;74.30;;;;;;4970011;28;20446;-69
2023/07/07 09:34:21;;;;;;;1.13;1.03;;;25.40;73.40;;;;;;4969220;28;20430;-67
2023/07/07 09:37:13;;;;;;;1.93;1.73;;;25.40;72.10;;;;;;4968511;28;20473;-67
2023/07/07 09:39:55;;;;;;;1.40;1.30;;;25.50;73.30;;;;;;4961193;28;20520;-67
2023/07/07 09:42:38;;;;;;;2.83;1.70;;;25.50;72.50;;;;;;4968442;28;20455;-67
2023/07/07 09:45:23;;;;;;;4.47;1.97;;;25.50;71.10;;;;;;4960354;28;20438;-67
2023/07/07 09:47:55;;;;;;;1.20;1.10;;;25.60;73.40;;;;;;4970267;28;20430;-67
2023/07/07 09:50:34;;;;;;;2.27;1.37;;;25.70;72.40;;;;;;4970350;28;20515;-67
2023/07/07 09:53:12;;;;;;;2.50;1.60;;;25.80;72.60;;;;;;4969792;28;20430;-67
2023/07/07 09:55:39;;;;;;;1.53;1.43;;;25.90;73.10;;;;;;4964930;28;20432;-67
2023/07/07 09:58:45;;;;;;;1.20;1.10;;;26.00;72.90;;;;;;4971277;28;20492;-67
2023/07/07 10:01:11;;;;;;;2.07;1.30;;;26.20;72.40;;;;;;4969930;28;21008;-67
2023/07/07 10:03:38;;;;;;;1.83;1.73;;;26.30;71.90;;;;;;4971359;28;20422;-68
2023/07/07 10:06:13;;;;;;;2.37;1.20;;;26.30;71.80;;;;;;4970847;28;20269;-68
2023/07/07 10:08:38;;;;;;;3.90;2.17;;;26.40;70.90;;;;;;4969130;28;20469;-68
2023/07/07 10:11:22;;;;;;;2.10;1.50;;;26.40;71.00;;;;;;4968021;28;20501;-68
2023/07/07 10:13:52;;;;;;;2.10;1.90;;;26.50;71.70;;;;;;4968655;28;20182;-68
2023/07/07 10:16:23;;;;;;;1.43;1.23;;;26.60;70.70;;;;;;4969212;28;21191;-68
2023/07/07 10:18:49;;;;;;;1.50;1.40;;;26.70;71.50;;;;;;4968835;28;20429;-68
2023/07/07 10:21:18;;;;;;;1.90;1.80;;;26.70;70.70;;;;;;4968005;28;20453;-68
2023/07/07 10:23:44;;;;;;;1.17;1.10;;;26.70;70.80;;;;;;4968504;28;20910;-68
2023/07/07 10:26:09;;;;;;;2.00;1.33;;;26.80;69.80;;;;;;4969986;28;20414;-68
2023/07/07 10:28:35;;;;;;;2.57;1.60;;;26.80;71.40;;;;;;4969375;28;20186;-68
2023/07/07 10:31:02;;;;;;;1.83;1.73;;;26.90;69.20;;;;;;4968377;28;20203;-68
2023/07/07 10:33:27;;;;;;;4.43;1.67;;;27.00;68.70;;;;;;4969626;28;20963;-67
2023/07/07 10:35:53;;;;;;;2.80;1.13;;;27.10;67.80;;;;;;4966360;28;20425;-68
2023/07/07 10:38:18;;;;;;;1.40;1.37;;;27.10;66.90;;;;;;4969756;28;20630;-68
2023/07/07 10:40:45;;;;;;;2.40;1.37;;;27.20;67.70;;;;;;4963744;28;20190;-68
2023/07/07 10:43:15;;;;;;;1.30;1.10;;;27.20;68.60;;;;;;4968658;28;20185;-68
2023/07/07 10:45:48;;;;;;;1.87;1.77;;;27.30;69.00;;;;;;4968279;28;20448;-67
2023/07/07 10:48:14;;;;;;;1.57;1.20;;;27.40;68.00;;;;;;4968796;28;20989;-68
2023/07/07 10:51:09;;;;;;;2.70;2.03;;;27.40;67.90;;;;;;4971151;23;20538;-88
2023/07/07 10:53:55;;;;;;;3.47;1.30;;;27.30;67.50;;;;;;4952360;29;20403;-90
2023/07/07 10:56:35;;;;;;;1.70;1.60;;;27.30;67.50;;;;;;4952429;28;20461;-89
2023/07/07 10:59:24;;;;;;;2.70;1.77;;;27.30;68.10;;;;;;4946620;28;20430;-89
2023/07/07 11:02:12;;;;;;;2.60;1.87;;;27.40;66.40;;;;;;4930088;29;20408;-89
2023/07/07 11:05:14;;;;;;;2.13;1.97;;;27.40;67.20;;;;;;4933316;29;20518;-89
2023/07/07 11:08:10;;;;;;;2.43;2.13;;;27.50;66.70;;;;;;4930472;29;20438;-86
2023/07/07 11:11:14;;;;;;;1.67;1.50;;;27.60;68.10;;;;;;4932882;29;20886;-85
2023/07/07 11:14:01;;;;;;;1.47;1.43;;;27.70;67.30;;;;;;4928555;29;20415;-89
2023/07/07 11:16:44;;;;;;;1.20;1.10;;;27.80;68.00;;;;;;4935302;29;20940;-87
2023/07/07 11:19:48;;;;;;;1.83;1.30;;;28.00;67.60;;;;;;4935744;29;20423;-90
2023/07/07 11:22:28;;;;;;;2.63;1.60;;;28.10;68.20;;;;;;4934554;29;20426;-90
2023/07/07 11:25:22;;;;;;;4.00;0.90;;;28.20;67.00;;;;;;4931744;29;20433;-87
2023/07/07 11:28:19;;;;;;;1.70;1.60;;;28.30;67.00;;;;;;4942397;29;20438;-89
2023/07/07 11:31:06;;;;;;;2.23;1.40;;;28.30;66.40;;;;;;4911337;29;20477;-87
2023/07/07 11:33:59;;;;;;;2.10;1.07;;;28.40;67.30;;;;;;4933808;29;20476;-89
2023/07/07 11:36:37;;;;;;;1.67;1.57;;;28.50;65.00;;;;;;4926544;29;20939;-87
2023/07/07 11:39:18;;;;;;;1.93;1.60;;;28.50;65.50;;;;;;4949190;29;20431;-90
2023/07/07 11:41:57;;;;;;;1.93;1.43;;;28.50;65.90;;;;;;4954894;29;20404;-87
2023/07/07 11:44:46;;;;;;;1.70;1.60;;;28.60;65.50;;;;;;4936207;29;20960;-90
2023/07/07 11:47:19;;;;;;;1.90;1.30;;;28.70;66.70;;;;;;4950740;29;20452;-89
2023/07/07 11:50:09;;;;;;;1.20;1.13;;;28.70;66.60;;;;;;4949494;29;20471;-90
2023/07/07 11:52:52;;;;;;;1.53;1.47;;;28.80;66.10;;;;;;4933283;29;20455;-89
2023/07/07 11:55:59;;;;;;;1.30;1.20;;;29.00;67.00;;;;;;4932375;29;20438;-90
2023/07/07 11:58:48;;;;;;;1.50;1.40;;;29.10;66.40;;;;;;4933466;29;20765;-90
2023/07/07 12:01:17;;;;;;;1.20;1.10;;;29.20;65.70;;;;;;4933431;29;20463;-90
2023/07/07 12:03:59;;;;;;;1.60;1.50;;;29.30;65.60;;;;;;4949944;29;20415;-89
2023/07/07 12:06:32;;;;;;;1.63;1.30;;;29.50;66.20;;;;;;4941010;29;20428;-89
2023/07/07 12:08:57;;;;;;;1.13;0.90;;;29.60;64.20;;;;;;4926429;29;20515;-90
2023/07/07 12:11:26;;;;;;;3.93;1.90;;;29.60;63.90;;;;;;4927578;29;20941;-90
2023/07/07 12:14:06;;;;;;;1.83;1.40;;;29.70;64.20;;;;;;4949988;29;20250;-90
2023/07/07 12:16:38;;;;;;;1.20;1.10;;;29.70;64.40;;;;;;4927666;29;20419;-91
2023/07/07 12:19:34;;;;;;;1.20;1.10;;;29.80;64.80;;;;;;4933685;29;20437;-89
2023/07/07 12:22:04;;;;;;;1.50;1.40;;;29.90;63.50;;;;;;4930811;29;20451;-90
2023/07/07 12:24:42;;;;;;;1.30;1.20;;;30.00;63.20;;;;;;4947913;29;20434;-90
2023/07/07 12:27:39;;;;;;;1.20;1.20;;;30.10;63.40;;;;;;4949144;29;20518;-90
2023/07/07 12:30:07;;;;;;;1.63;1.20;;;30.10;62.20;;;;;;4928582;29;20547;-90
2023/07/07 12:32:34;;;;;;;1.07;0.97;;;30.20;63.90;;;;;;4933024;29;20436;-90
2023/07/07 12:35:13;;;;;;;5.87;1.90;;;30.30;61.40;;;;;;4932482;29;20984;-90
2023/07/07 12:37:39;;;;;;;3.67;1.43;;;30.40;62.00;;;;;;4941059;29;20459;-90
2023/07/07 12:40:16;;;;;;;1.33;1.23;;;30.50;62.00;;;;;;4930371;29;20840;-89
2023/07/07 12:42:43;;;;;;;2.43;1.70;;;30.50;61.80;;;;;;4936501;29;20622;-89
2023/07/07 12:45:29;;;;;;;1.27;1.17;;;30.60;60.60;;;;;;4930709;29;20452;-88
2023/07/07 12:48:20;;;;;;;1.10;1.00;;;30.60;59.50;;;;;;4932574;29;20467;-90
2023/07/07 12:50:48;;;;;;;3.23;2.10;;;30.60;59.90;;;;;;4936221;29;20515;-90
2023/07/07 12:53:34;;;;;;;1.17;1.07;;;30.70;57.90;;;;;;4933117;29;20448;-90
2023/07/07 12:56:06;;;;;;;1.40;1.30;;;30.70;57.60;;;;;;4952234;29;20438;-90
2023/07/07 12:58:41;;;;;;;2.20;1.07;;;30.80;57.40;;;;;;4937036;29;20463;-90
2023/07/07 13:01:11;;;;;;;2.80;1.53;;;30.90;58.50;;;;;;4950080;29;20455;-88
2023/07/07 13:03:45;;;;;;;1.00;0.90;;;31.00;57.50;;;;;;4953291;29;20431;-91
2023/07/07 13:07:02;;;;;;;1.23;1.03;;;31.00;56.10;;;;;;4935030;29;20534;-88
2023/07/07 13:09:41;;;;;;;3.87;1.67;;;31.10;57.50;;;;;;4872336;29;20461;-88
2023/07/07 13:12:41;;;;;;;1.80;1.00;;;31.10;56.60;;;;;;4943199;29;20432;-88
2023/07/07 13:15:25;;;;;;;1.10;0.97;;;31.10;55.20;;;;;;4951382;29;20803;-88
2023/07/07 13:17:53;;;;;;;1.33;1.23;;;31.20;56.10;;;;;;4934956;29;20554;-87
2023/07/07 13:20:20;;;;;;;1.43;1.33;;;31.20;57.10;;;;;;4927425;29;20486;-87
2023/07/07 13:22:58;;;;;;;1.20;1.10;;;31.20;57.10;;;;;;4935136;29;20515;-88
2023/07/07 13:25:29;;;;;;;6.87;2.00;;;31.30;56.60;;;;;;4932938;29;20862;-90
2023/07/07 13:27:55;;;;;;;1.10;1.00;;;31.40;57.00;;;;;;4935675;29;20770;-90
2023/07/07 13:30:41;;;;;;;1.40;1.30;;;31.40;58.00;;;;;;4934552;29;20510;-90
2023/07/07 13:33:11;;;;;;;4.13;1.20;;;31.40;56.80;;;;;;4942080;29;20192;-92
2023/07/07 13:35:40;;;;;;;2.90;2.73;;;31.30;57.60;;;;;;4950561;28;20438;-89
2023/07/07 13:38:13;;;;;;;2.80;1.23;;;31.40;58.20;;;;;;4934570;29;20459;-89
2023/07/07 13:40:39;;;;;;;1.60;1.50;;;31.40;58.80;;;;;;4945675;28;21108;-90
2023/07/07 13:43:13;;;;;;;1.60;1.17;;;31.40;57.50;;;;;;4930577;29;20443;-88
2023/07/07 13:45:39;;;;;;;1.60;1.33;;;31.50;56.10;;;;;;4929114;29;20180;-89
2023/07/07 13:48:09;;;;;;;2.77;1.67;;;31.60;56.80;;;;;;4929701;29;20869;-89
2023/07/07 13:50:38;;;;;;;1.50;1.20;;;31.80;56.10;;;;;;4937942;28;20649;-92
2023/07/07 13:53:09;;;;;;;1.43;1.40;;;31.80;56.50;;;;;;4936485;29;20446;-91
2023/07/07 13:55:37;;;;;;;1.10;1.00;;;31.90;57.50;;;;;;4935993;29;20434;-91
2023/07/07 13:58:04;;;;;;;1.60;1.20;;;32.00;54.50;;;;;;4935014;29;20459;-90
2023/07/07 14:00:36;;;;;;;3.80;1.60;;;32.10;54.90;;;;;;4943687;29;20458;-92
2023/07/07 14:03:08;;;;;;;1.20;1.10;;;32.20;55.20;;;;;;4938427;29;20776;-90
2023/07/07 14:05:35;;;;;;;1.13;1.03;;;32.20;54.50;;;;;;4934720;29;20423;-91
2023/07/07 14:08:16;;;;;;;2.10;1.20;;;32.20;54.50;;;;;;4934906;29;20432;-91
2023/07/07 14:10:44;;;;;;;1.27;1.07;;;32.30;54.30;;;;;;4939777;29;20451;-90
2023/07/07 14:13:15;;;;;;;1.40;1.17;;;32.20;54.10;;;;;;4934682;29;20462;-90
2023/07/07 14:16:02;;;;;;;2.50;1.33;;;32.30;54.00;;;;;;4942382;29;20423;-90
2023/07/07 14:18:33;;;;;;;1.43;1.30;;;32.40;54.90;;;;;;4928083;29;20494;-90
2023/07/07 14:21:03;;;;;;;2.30;1.77;;;32.50;53.30;;;;;;4941291;29;20511;-91
2023/07/07 14:23:29;;;;;;;3.90;1.70;;;32.60;54.00;;;;;;4943179;29;20953;-89
2023/07/07 14:25:57;;;;;;;1.73;1.63;;;32.60;53.10;;;;;;4935499;29;20424;-90
2023/07/07 14:28:33;;;;;;;1.77;1.23;;;32.70;53.10;;;;;;4928969;29;20460;-90
2023/07/07 14:31:07;;;;;;;1.07;1.03;;;32.70;53.30;;;;;;4951439;28;20541;-90
2023/07/07 14:33:44;;;;;;;1.40;1.10;;;32.70;53.50;;;;;;4942098;29;20458;-90
2023/07/07 14:36:21;;;;;;;8.10;1.67;;;32.70;53.70;;;;;;4933904;29;20470;-90
2023/07/07 14:38:58;;;;;;;1.23;1.03;;;32.70;54.90;;;;;;4936879;29;20495;-90
2023/07/07 14:41:28;;;;;;;1.67;1.57;;;32.80;54.00;;;;;;4944968;29;20454;-90
2023/07/07 14:43:53;;;;;;;1.17;1.07;;;32.90;54.30;;;;;;4945820;29;20923;-90
2023/07/07 14:46:27;;;;;;;2.10;1.63;;;32.90;52.70;;;;;;4961050;29;20476;-92
2023/07/07 14:48:55;;;;;;;1.43;1.33;;;32.90;52.50;;;;;;4947087;29;20188;-90
2023/07/07 14:51:46;;;;;;;3.70;1.30;;;32.80;54.50;;;;;;4932564;29;20692;-92
2023/07/07 14:54:26;;;;;;;3.63;1.83;;;32.70;55.40;;;;;;4963250;28;20451;-90
2023/07/07 14:57:05;;;;;;;1.47;1.40;;;32.80;55.50;;;;;;4945595;29;20431;-90
2023/07/07 14:59:35;;;;;;;1.50;1.40;;;32.90;55.00;;;;;;4934702;29;20447;-89
2023/07/07 15:02:26;;;;;;;2.00;1.20;;;33.00;54.40;;;;;;4933978;29;20427;-91
2023/07/07 15:04:51;;;;;;;2.10;1.37;;;33.20;55.60;;;;;;4951265;29;20431;-90
2023/07/07 15:07:40;;;;;;;0.93;0.83;;;33.30;55.40;;;;;;4939344;29;20431;-90
2023/07/07 15:10:07;;;;;;;1.20;1.10;;;33.40;55.50;;;;;;4947463;28;20238;-90
2023/07/07 15:12:34;;;;;;;2.33;1.70;;;33.50;55.10;;;;;;4933776;29;20431;-90
2023/07/07 15:14:59;;;;;;;1.50;1.30;;;33.50;55.50;;;;;;4944874;29;20431;-89
2023/07/07 15:17:25;;;;;;;1.73;1.40;;;33.60;55.60;;;;;;4934449;29;20467;-90
2023/07/07 15:19:52;;;;;;;1.53;1.13;;;33.60;54.40;;;;;;4934416;29;20210;-91
2023/07/07 15:22:18;;;;;;;1.37;1.03;;;33.60;54.30;;;;;;4930286;29;20188;-91
2023/07/07 15:24:43;;;;;;;1.47;1.40;;;33.70;56.10;;;;;;4934030;29;20472;-90
2023/07/07 15:27:13;;;;;;;2.87;1.50;;;33.70;55.60;;;;;;4926947;29;20180;-90
2023/07/07 15:29:41;;;;;;;1.83;1.43;;;33.70;54.50;;;;;;4924902;29;20251;-90
2023/07/07 15:32:12;;;;;;;1.87;1.67;;;33.60;54.20;;;;;;4926658;29;20519;-90
2023/07/07 15:34:37;;;;;;;3.63;1.60;;;33.60;53.90;;;;;;4948306;29;20436;-91
2023/07/07 15:37:03;;;;;;;1.70;1.60;;;33.50;54.10;;;;;;4929095;29;20505;-90
2023/07/07 15:39:29;;;;;;;1.70;1.60;;;33.60;54.90;;;;;;4932491;29;20674;-90
2023/07/07 15:41:54;;;;;;;1.47;1.33;;;33.60;55.70;;;;;;4930648;29;20330;-90
2023/07/07 15:44:22;;;;;;;1.57;1.47;;;33.70;55.70;;;;;;4926308;29;20191;-91
2023/07/07 15:46:47;;;;;;;3.30;1.93;;;33.70;55.10;;;;;;4933854;29;20507;-91
2023/07/07 15:49:15;;;;;;;1.50;1.40;;;33.70;55.90;;;;;;4934800;29;20504;-91
2023/07/07 15:51:43;;;;;;;1.83;1.80;;;33.70;55.60;;;;;;4932345;29;20195;-90
2023/07/07 15:54:10;;;;;;;1.97;1.30;;;33.60;55.00;;;;;;4950251;29;20420;-90
2023/07/07 15:56:41;;;;;;;3.77;2.30;;;33.50;55.30;;;;;;4931951;29;20459;-90
2023/07/07 15:59:18;;;;;;;11.07;1.57;;;33.50;55.80;;;;;;4926153;29;20624;-90
2023/07/07 16:01:44;;;;;;;2.47;1.57;;;33.50;56.00;;;;;;4930291;29;20432;-90
2023/07/07 16:04:10;;;;;;;2.47;1.97;;;33.60;56.40;;;;;;4923316;29;20413;-90
2023/07/07 16:06:36;;;;;;;0.90;0.80;;;33.50;54.70;;;;;;4928898;29;20805;-90
2023/07/07 16:09:02;;;;;;;1.70;1.60;;;33.40;56.00;;;;;;4929297;29;20654;-91
2023/07/07 16:11:27;;;;;;;1.10;1.00;;;33.40;55.80;;;;;;4934245;29;20484;-91
2023/07/07 16:13:53;;;;;;;2.60;1.93;;;33.50;56.00;;;;;;4937813;29;20179;-89
2023/07/07 16:16:24;;;;;;;1.30;1.20;;;33.60;55.70;;;;;;4930640;29;20184;-91
2023/07/07 16:18:50;;;;;;;1.47;1.37;;;33.70;55.60;;;;;;4948933;29;20204;-90
2023/07/07 16:21:24;;;;;;;1.33;1.23;;;33.70;54.90;;;;;;4950892;28;20452;-90
2023/07/07 16:23:51;;;;;;;1.50;1.40;;;33.80;56.00;;;;;;4931746;29;20934;-90
2023/07/07 16:26:38;;;;;;;1.30;1.20;;;33.80;56.00;;;;;;4945022;29;20420;-90
2023/07/07 16:29:13;;;;;;;4.47;2.00;;;33.80;55.60;;;;;;4944951;29;20429;-90
2023/07/07 16:31:39;;;;;;;1.50;1.40;;;33.80;55.20;;;;;;4936410;29;20419;-90
2023/07/07 16:34:04;;;;;;;1.37;1.17;;;33.70;55.20;;;;;;4922273;29;20460;-91
2023/07/07 16:36:30;;;;;;;3.07;1.83;;;33.70;55.20;;;;;;4935726;29;20474;-91
2023/07/07 16:38:56;;;;;;;1.87;1.50;;;33.70;55.70;;;;;;4936954;29;20200;-90
2023/07/07 16:41:23;;;;;;;4.00;1.77;;;33.70;55.30;;;;;;4922180;29;20211;-90
2023/07/07 16:43:50;;;;;;;2.30;1.77;;;33.60;54.50;;;;;;4952844;29;20214;-90
2023/07/07 16:46:18;;;;;;;5.33;1.70;;;33.40;55.10;;;;;;4941116;29;20439;-89
2023/07/07 16:48:45;;;;;;;2.03;1.90;;;33.30;54.90;;;;;;4935818;29;20424;-90
2023/07/07 16:51:13;;;;;;;2.43;2.00;;;33.10;55.40;;;;;;4998300;23;20484;-73
2023/07/07 16:53:39;;;;;;;2.20;1.60;;;33.00;55.90;;;;;;5000305;28;21081;-72
2023/07/07 16:56:13;;;;;;;1.90;1.50;;;32.80;55.30;;;;;;5008799;28;20424;-73
2023/07/07 16:58:39;;;;;;;2.83;2.03;;;32.40;55.60;;;;;;5009599;28;20459;-72
2023/07/07 17:01:04;;;;;;;2.03;1.70;;;32.20;55.60;;;;;;4996769;28;20465;-73
2023/07/07 17:03:30;;;;;;;1.93;1.53;;;31.90;55.70;;;;;;4979303;28;20190;-72
2023/07/07 17:05:56;;;;;;;1.63;1.47;;;31.60;56.70;;;;;;4970474;28;20261;-72
2023/07/07 17:08:21;;;;;;;1.80;1.73;;;31.40;56.70;;;;;;4973785;28;20673;-73
2023/07/07 17:10:47;;;;;;;1.60;1.43;;;31.20;56.90;;;;;;5007461;28;20202;-72